Time;durP1;ratioP1;P1;durP2;ratioP2;P2;SDS_P1;SDS_P2;PMS_P1;PMS_P2;Temp;Humidity;BMP_temperature;BMP_pressure;BME280_temperature;BME280_humidity;BME280_pressure;Samples;Min_cycle;Max_cycle;Signal;HPM_P1;HPM_P2
2022/01/31 00:02:08;;;;;;;6.25;0.80;;;8.90;96.90;;;;;;4991744;28;20060;-73
2022/01/31 00:04:36;;;;;;;9.93;1.20;;;9.00;96.90;;;;;;5026347;28;20025;-73
2022/01/31 00:07:08;;;;;;;6.47;1.10;;;8.90;97.10;;;;;;4992388;28;20026;-73
2022/01/31 00:09:36;;;;;;;5.53;1.15;;;8.90;97.60;;;;;;4993099;28;20033;-73
2022/01/31 00:12:10;;;;;;;6.03;0.93;;;8.90;97.40;;;;;;4992104;28;20325;-74
2022/01/31 00:14:42;;;;;;;5.82;1.02;;;8.90;98.10;;;;;;4977370;28;20301;-73
2022/01/31 00:17:12;;;;;;;7.95;1.27;;;8.90;98.80;;;;;;4992841;28;20037;-75
2022/01/31 00:19:42;;;;;;;8.48;1.08;;;8.90;99.10;;;;;;5009001;28;20022;-74
2022/01/31 00:22:14;;;;;;;5.45;1.05;;;8.90;99.10;;;;;;5008169;28;20384;-75
2022/01/31 00:24:40;;;;;;;;;;;8.80;99.30;;;;;;4993257;28;20092;-75
2022/01/31 00:27:15;;;;;;;7.43;0.80;;;8.70;99.50;;;;;;5008476;28;19952;-73
2022/01/31 00:29:53;;;;;;;8.70;1.13;;;8.70;99.60;;;;;;4977490;28;20022;-73
2022/01/31 00:32:19;;;;;;;5.82;1.20;;;8.60;98.70;;;;;;4991744;28;20025;-73
2022/01/31 00:35:12;;;;;;;;;;;;;;;;;;;;;
2022/01/31 00:37:42;;;;;;;5.88;1.25;;;8.60;99.40;;;;;;5010545;28;20037;-72
2022/01/31 00:40:12;;;;;;;13.35;1.23;;;8.60;99.80;;;;;;5007248;28;20030;-73
2022/01/31 00:42:48;;;;;;;7.93;1.27;;;8.60;99.90;;;;;;5025731;28;20213;-74
2022/01/31 00:45:28;;;;;;;6.28;1.50;;;8.50;99.90;;;;;;5009165;28;20221;-74
2022/01/31 00:48:04;;;;;;;7.75;1.40;;;8.60;99.70;;;;;;5024054;28;20328;-73
2022/01/31 00:50:40;;;;;;;6.50;1.10;;;8.60;99.40;;;;;;4992510;28;20076;-73
2022/01/31 00:53:07;;;;;;;11.55;1.60;;;8.50;98.90;;;;;;5007858;28;20083;-74
2022/01/31 00:55:39;;;;;;;7.35;0.98;;;8.50;98.90;;;;;;5006030;28;20029;-74
2022/01/31 00:58:09;;;;;;;11.40;1.73;;;8.60;98.60;;;;;;4991686;28;20064;-74
2022/01/31 01:00:38;;;;;;;9.00;1.77;;;8.50;98.60;;;;;;5007554;28;20026;-74
2022/01/31 01:03:07;;;;;;;9.25;1.50;;;8.60;98.90;;;;;;4991770;28;20041;-74
2022/01/31 01:05:44;;;;;;;5.80;1.17;;;8.60;98.50;;;;;;5025199;28;20279;-74
2022/01/31 01:08:13;;;;;;;7.80;1.42;;;8.60;98.30;;;;;;5023934;28;20014;-73
2022/01/31 01:10:44;;;;;;;6.05;1.00;;;8.60;98.40;;;;;;4991086;28;20045;-74
2022/01/31 01:13:10;;;;;;;8.75;1.40;;;8.60;98.50;;;;;;5007617;28;20044;-74
2022/01/31 01:15:41;;;;;;;11.70;1.42;;;8.50;98.50;;;;;;5007484;28;20105;-74
2022/01/31 01:18:09;;;;;;;8.73;1.50;;;8.50;98.40;;;;;;4992163;28;20018;-73
2022/01/31 01:21:14;;;;;;;10.77;2.10;;;8.50;98.40;;;;;;4986514;28;20020;-73
2022/01/31 01:23:52;;;;;;;10.35;1.25;;;8.50;98.10;;;;;;4946274;29;20036;-73
2022/01/31 01:26:32;;;;;;;9.32;1.17;;;8.50;98.10;;;;;;4944429;28;20040;-73
2022/01/31 01:29:09;;;;;;;13.82;1.70;;;8.50;98.20;;;;;;4944887;29;20020;-73
2022/01/31 01:31:58;;;;;;;5.15;1.55;;;8.50;97.90;;;;;;4936759;28;20086;-73
2022/01/31 01:34:25;;;;;;;14.85;1.48;;;8.50;98.20;;;;;;4930774;29;20059;-73
2022/01/31 01:36:53;;;;;;;7.05;0.98;;;8.40;98.20;;;;;;4929430;28;20024;-73
2022/01/31 01:39:19;;;;;;;9.48;1.45;;;8.40;98.50;;;;;;4908472;29;20284;-74
2022/01/31 01:41:48;;;;;;;10.93;1.67;;;8.40;98.40;;;;;;4943821;29;20343;-72
2022/01/31 01:44:19;;;;;;;10.82;1.13;;;8.40;98.90;;;;;;4944890;29;20275;-73
2022/01/31 01:46:45;;;;;;;13.30;1.95;;;8.40;98.60;;;;;;4941420;29;20046;-73
2022/01/31 01:49:16;;;;;;;11.60;1.80;;;8.40;98.80;;;;;;4944831;29;20299;-73
2022/01/31 01:51:42;;;;;;;9.80;1.70;;;8.30;98.60;;;;;;4928964;29;20353;-72
2022/01/31 01:54:10;;;;;;;11.48;1.83;;;8.30;98.60;;;;;;4990043;28;20116;-73
2022/01/31 01:56:41;;;;;;;11.57;2.00;;;8.30;98.60;;;;;;5023654;28;20094;-73
2022/01/31 01:59:25;;;;;;;11.43;1.63;;;8.30;98.60;;;;;;4990133;28;20029;-73
2022/01/31 02:02:11;;;;;;;15.45;1.65;;;8.20;98.30;;;;;;5006469;28;20167;-73
2022/01/31 02:04:41;;;;;;;8.38;1.73;;;8.20;98.30;;;;;;4950568;29;20327;-72
2022/01/31 02:07:15;;;;;;;14.38;1.70;;;8.20;98.00;;;;;;4932652;29;20102;-75
2022/01/31 02:09:44;;;;;;;13.98;2.10;;;8.20;97.50;;;;;;4948487;29;20342;-74
2022/01/31 02:12:23;;;;;;;8.48;1.60;;;8.30;97.60;;;;;;4932152;29;20127;-73
2022/01/31 02:15:03;;;;;;;12.32;1.67;;;8.30;98.00;;;;;;4932598;29;20053;-74
2022/01/31 02:17:37;;;;;;;5.75;1.95;;;8.20;98.10;;;;;;4947933;29;20026;-74
2022/01/31 02:20:05;;;;;;;16.80;1.67;;;8.20;97.20;;;;;;4931536;29;20035;-75
2022/01/31 02:22:40;;;;;;;9.60;1.58;;;8.20;98.10;;;;;;4946910;29;20027;-73
2022/01/31 02:25:12;;;;;;;10.70;1.40;;;8.20;98.40;;;;;;4948191;29;20043;-73
2022/01/31 02:27:47;;;;;;;8.80;1.52;;;8.20;98.30;;;;;;4947705;29;20226;-73
2022/01/31 02:30:19;;;;;;;9.02;1.15;;;8.20;98.40;;;;;;4932185;29;20118;-73
2022/01/31 02:32:54;;;;;;;12.13;1.67;;;8.10;98.30;;;;;;4945578;29;20062;-74
2022/01/31 02:35:40;;;;;;;10.90;1.60;;;8.10;97.40;;;;;;4962974;28;20034;-73
2022/01/31 02:38:09;;;;;;;9.32;1.15;;;8.10;97.40;;;;;;4992303;28;20085;-73
2022/01/31 02:40:48;;;;;;;13.43;1.63;;;8.20;97.90;;;;;;4989582;28;20316;-72
2022/01/31 02:43:30;;;;;;;10.23;1.17;;;8.20;97.30;;;;;;5006219;28;20056;-73
2022/01/31 02:46:13;;;;;;;11.73;2.10;;;8.20;96.60;;;;;;5006268;28;20033;-74
2022/01/31 02:49:02;;;;;;;15.05;1.48;;;8.30;96.00;;;;;;4986887;28;20217;-75
2022/01/31 02:51:32;;;;;;;6.85;1.15;;;8.40;95.80;;;;;;4986203;28;20060;-74
2022/01/31 02:54:07;;;;;;;7.35;1.20;;;8.40;95.50;;;;;;4955014;28;20038;-73
2022/01/31 02:56:41;;;;;;;6.47;1.30;;;8.40;95.50;;;;;;4970741;28;20058;-73
2022/01/31 02:59:32;;;;;;;10.43;1.65;;;8.40;95.40;;;;;;4971353;28;20033;-73
2022/01/31 03:01:58;;;;;;;12.38;1.88;;;8.30;95.60;;;;;;5006983;28;20022;-73
2022/01/31 03:04:29;;;;;;;12.45;1.88;;;8.30;95.60;;;;;;4989541;28;20352;-73
2022/01/31 03:07:04;;;;;;;13.38;1.80;;;8.30;95.50;;;;;;5006594;28;20025;-74
2022/01/31 03:09:37;;;;;;;5.82;1.40;;;8.30;95.80;;;;;;5006081;28;20041;-74
2022/01/31 03:12:03;;;;;;;13.77;1.92;;;8.30;95.70;;;;;;5022146;28;20036;-73
2022/01/31 03:14:32;;;;;;;13.57;1.80;;;8.20;95.80;;;;;;5006102;28;20085;-72
2022/01/31 03:17:11;;;;;;;14.63;2.10;;;8.20;95.70;;;;;;5023756;28;20096;-73
2022/01/31 03:19:54;;;;;;;11.45;1.45;;;8.20;96.00;;;;;;4991667;28;20021;-72
2022/01/31 03:22:32;;;;;;;13.63;1.75;;;8.20;95.70;;;;;;5006831;28;20022;-73
2022/01/31 03:25:18;;;;;;;16.52;1.58;;;8.30;95.30;;;;;;4999583;28;20022;-73
2022/01/31 03:27:49;;;;;;;11.70;1.98;;;8.30;95.00;;;;;;5006287;28;20034;-73
2022/01/31 03:30:27;;;;;;;10.75;1.92;;;8.30;94.90;;;;;;5005361;28;20064;-72
2022/01/31 03:32:56;;;;;;;12.75;1.65;;;8.30;94.80;;;;;;4988917;28;20045;-72
2022/01/31 03:35:25;;;;;;;13.77;1.77;;;8.30;95.00;;;;;;4990880;28;20029;-74
2022/01/31 03:37:51;;;;;;;16.35;1.83;;;8.30;95.00;;;;;;5009477;28;20029;-73
2022/01/31 03:40:19;;;;;;;10.45;1.90;;;8.20;95.40;;;;;;5026813;28;20018;-73
2022/01/31 03:42:56;;;;;;;17.48;2.45;;;8.20;95.00;;;;;;4993223;28;20018;-75
2022/01/31 03:45:25;;;;;;;13.32;1.80;;;8.30;94.90;;;;;;5009621;28;20141;-73
2022/01/31 03:47:59;;;;;;;13.60;1.70;;;8.20;94.80;;;;;;5005668;28;20228;-74
2022/01/31 03:50:28;;;;;;;11.35;1.90;;;8.30;94.80;;;;;;4989603;28;20190;-73
2022/01/31 03:53:09;;;;;;;11.43;1.92;;;8.20;95.20;;;;;;4972904;28;20027;-73
2022/01/31 03:55:38;;;;;;;10.40;1.67;;;8.20;95.10;;;;;;5006393;28;20030;-72
2022/01/31 03:58:16;;;;;;;11.55;1.67;;;8.10;95.20;;;;;;5020571;28;20276;-73
2022/01/31 04:00:43;;;;;;;11.25;2.03;;;8.10;95.00;;;;;;5019579;28;20023;-74
2022/01/31 04:03:17;;;;;;;7.57;1.30;;;8.10;94.90;;;;;;5034116;28;20026;-72
2022/01/31 04:05:46;;;;;;;15.40;2.13;;;8.20;94.80;;;;;;5022008;28;20014;-72
2022/01/31 04:08:23;;;;;;;12.05;1.50;;;8.20;95.10;;;;;;5017008;28;20029;-74
2022/01/31 04:10:49;;;;;;;8.77;1.52;;;8.20;94.80;;;;;;5025947;28;20022;-73
2022/01/31 04:13:18;;;;;;;13.60;1.23;;;8.20;94.80;;;;;;5008258;28;20040;-73
2022/01/31 04:15:56;;;;;;;5.63;1.20;;;8.20;94.80;;;;;;4992110;28;20033;-73
2022/01/31 04:18:25;;;;;;;8.90;1.20;;;8.20;94.90;;;;;;5009362;28;20045;-73
2022/01/31 04:20:51;;;;;;;7.97;1.70;;;8.10;94.80;;;;;;5008362;28;20014;-72
2022/01/31 04:23:27;;;;;;;10.70;1.95;;;8.10;94.80;;;;;;5008490;28;20029;-74
2022/01/31 04:25:55;;;;;;;8.55;1.52;;;8.20;94.50;;;;;;5009872;28;20096;-73
2022/01/31 04:28:30;;;;;;;10.20;1.88;;;8.10;94.40;;;;;;5008821;28;20356;-75
2022/01/31 04:31:11;;;;;;;9.40;1.70;;;8.10;94.30;;;;;;5001232;28;20229;-73
2022/01/31 04:33:39;;;;;;;12.77;1.73;;;8.20;94.10;;;;;;5006884;28;20038;-74
2022/01/31 04:36:13;;;;;;;14.82;2.08;;;8.20;94.30;;;;;;5024144;28;20022;-74
2022/01/31 04:38:49;;;;;;;18.00;2.78;;;8.10;94.30;;;;;;5025410;28;20025;-73
2022/01/31 04:41:15;;;;;;;8.50;1.45;;;8.10;94.50;;;;;;5008807;28;20022;-73
2022/01/31 04:44:13;;;;;;;8.13;1.42;;;8.00;94.70;;;;;;4991532;28;20052;-72
2022/01/31 04:46:45;;;;;;;8.90;2.30;;;8.00;94.60;;;;;;4942594;29;20032;-74
2022/01/31 04:49:13;;;;;;;14.80;1.88;;;8.00;94.60;;;;;;4946238;29;20038;-73
2022/01/31 04:51:58;;;;;;;11.23;1.90;;;8.10;94.00;;;;;;4930137;29;20035;-72
2022/01/31 04:54:49;;;;;;;12.27;1.63;;;8.10;94.20;;;;;;4928933;29;20257;-72
2022/01/31 04:57:18;;;;;;;14.77;2.03;;;8.10;94.40;;;;;;4925563;29;20074;-73
2022/01/31 05:00:03;;;;;;;9.27;1.70;;;8.10;94.10;;;;;;4945684;29;20031;-72
2022/01/31 05:02:35;;;;;;;12.18;1.90;;;8.00;94.50;;;;;;4944653;29;20254;-73
2022/01/31 05:05:10;;;;;;;12.85;2.28;;;7.90;94.60;;;;;;4945724;29;20111;-73
2022/01/31 05:07:36;;;;;;;12.45;1.65;;;8.00;94.50;;;;;;4914482;29;20090;-72
2022/01/31 05:10:12;;;;;;;13.90;2.13;;;8.00;94.50;;;;;;4913915;29;20317;-72
2022/01/31 05:12:43;;;;;;;10.18;1.58;;;7.90;94.90;;;;;;4914456;29;20039;-74
2022/01/31 05:15:17;;;;;;;14.40;1.80;;;8.00;94.80;;;;;;4948388;28;20042;-73
2022/01/31 05:17:46;;;;;;;12.38;2.08;;;7.90;94.70;;;;;;4970734;28;20030;-74
2022/01/31 05:20:20;;;;;;;6.90;1.38;;;7.90;95.00;;;;;;4971619;28;20041;-73
2022/01/31 05:22:49;;;;;;;10.75;1.58;;;7.90;94.90;;;;;;4957066;28;20022;-74
2022/01/31 05:25:16;;;;;;;16.25;2.58;;;7.90;94.90;;;;;;4954845;28;20081;-72
2022/01/31 05:27:44;;;;;;;5.75;1.23;;;8.00;94.70;;;;;;4971664;28;20332;-73
2022/01/31 05:30:20;;;;;;;10.35;1.58;;;7.90;94.80;;;;;;4987903;28;20277;-73
2022/01/31 05:32:58;;;;;;;10.88;1.58;;;7.90;94.60;;;;;;4971720;28;20033;-72
2022/01/31 05:35:34;;;;;;;13.23;1.70;;;7.90;94.30;;;;;;4987779;28;20053;-75
2022/01/31 05:38:13;;;;;;;16.65;2.35;;;7.90;94.60;;;;;;4971801;28;20022;-73
2022/01/31 05:40:39;;;;;;;9.48;1.02;;;7.90;94.70;;;;;;4971457;28;20305;-74
2022/01/31 05:43:31;;;;;;;8.27;1.33;;;7.90;94.50;;;;;;4987592;28;20090;-72
2022/01/31 05:46:03;;;;;;;10.13;1.77;;;7.90;94.70;;;;;;4987848;28;20022;-75
2022/01/31 05:48:32;;;;;;;7.88;1.50;;;7.90;94.50;;;;;;4987695;28;20030;-75
2022/01/31 05:51:04;;;;;;;11.50;1.90;;;7.90;94.90;;;;;;5005084;28;20034;-74
2022/01/31 05:54:00;;;;;;;6.78;1.23;;;7.90;94.50;;;;;;4970723;28;20310;-75
2022/01/31 05:56:28;;;;;;;18.85;1.83;;;7.90;94.30;;;;;;4972427;28;20105;-73
2022/01/31 05:58:57;;;;;;;8.07;1.30;;;7.90;94.60;;;;;;4990837;28;20325;-73
2022/01/31 06:01:53;;;;;;;11.68;1.27;;;7.90;94.80;;;;;;4990271;28;20018;-74
2022/01/31 06:04:35;;;;;;;;;;;;;;;;;;;;;
2022/01/31 06:07:03;;;;;;;;;;;7.80;95.10;;;;;;4997661;28;20048;-73
2022/01/31 06:09:40;;;;;;;8.85;1.48;;;7.70;95.00;;;;;;5004694;28;19906;-74
2022/01/31 06:12:18;;;;;;;6.65;1.73;;;7.70;95.20;;;;;;4984328;28;20038;-74
2022/01/31 06:14:57;;;;;;;9.75;2.53;;;7.70;95.40;;;;;;4986656;28;20130;-73
2022/01/31 06:17:43;;;;;;;13.10;2.50;;;7.70;95.20;;;;;;4987439;28;20022;-74
2022/01/31 06:20:20;;;;;;;10.02;1.63;;;7.60;95.30;;;;;;4986440;28;20024;-74
2022/01/31 06:22:51;;;;;;;10.07;1.90;;;7.60;95.40;;;;;;4986429;28;20026;-74
2022/01/31 06:25:38;;;;;;;9.68;1.52;;;7.60;95.40;;;;;;4984793;28;20029;-75
2022/01/31 06:28:13;;;;;;;12.32;2.30;;;7.70;95.60;;;;;;4940016;28;20024;-75
2022/01/31 06:30:48;;;;;;;10.25;1.77;;;7.70;95.80;;;;;;4958206;28;20020;-73
2022/01/31 06:33:35;;;;;;;;;;;;;;;;;;;;;
2022/01/31 06:36:01;;;;;;;5.90;1.05;;;7.70;96.60;;;;;;4956469;28;20035;-74
2022/01/31 06:38:39;;;;;;;7.90;1.17;;;7.60;96.80;;;;;;4956700;29;20024;-74
2022/01/31 06:41:13;;;;;;;11.48;1.40;;;7.60;96.90;;;;;;4925174;29;20039;-75
2022/01/31 06:43:45;;;;;;;7.93;0.90;;;7.50;97.00;;;;;;4941872;29;20028;-73
2022/01/31 06:46:22;;;;;;;11.38;1.38;;;7.50;97.10;;;;;;4943587;29;20055;-75
2022/01/31 06:48:48;;;;;;;10.13;1.70;;;7.60;97.10;;;;;;4943885;29;20035;-73
2022/01/31 06:51:22;;;;;;;11.57;1.00;;;7.50;97.30;;;;;;4944025;29;20086;-74
2022/01/31 06:54:07;;;;;;;;;;;;;;;;;;;;;
2022/01/31 06:56:49;;;;;;;11.93;1.38;;;7.60;97.40;;;;;;4942987;29;20043;-76
2022/01/31 06:59:18;;;;;;;;;;;7.50;97.10;;;;;;4996204;28;20282;-75
2022/01/31 07:02:00;;;;;;;8.40;1.50;;;7.60;97.10;;;;;;5005921;28;19901;-74
2022/01/31 07:04:38;;;;;;;19.20;2.08;;;7.60;96.80;;;;;;5006174;28;20447;-75
2022/01/31 07:07:09;;;;;;;12.10;1.77;;;7.60;96.80;;;;;;5007670;28;20293;-76
2022/01/31 07:10:01;;;;;;;16.13;2.42;;;7.60;96.90;;;;;;5009351;28;20018;-75
2022/01/31 07:12:32;;;;;;;;;;;7.50;96.70;;;;;;4996418;28;20037;-76
2022/01/31 07:15:03;;;;;;;13.02;1.52;;;7.60;96.20;;;;;;5022625;28;19960;-75
2022/01/31 07:17:35;;;;;;;9.48;1.27;;;7.50;95.80;;;;;;5006993;28;20025;-74
2022/01/31 07:20:11;;;;;;;4.55;1.38;;;7.50;95.00;;;;;;5026455;28;20029;-74
2022/01/31 07:22:39;;;;;;;10.23;1.77;;;7.70;94.40;;;;;;5009531;28;20022;-75
2022/01/31 07:25:45;;;;;;;7.95;1.40;;;7.60;94.60;;;;;;5009613;28;20029;-77
2022/01/31 07:28:19;;;;;;;9.20;1.63;;;7.70;94.50;;;;;;5012601;28;20045;-76
2022/01/31 07:30:49;;;;;;;12.13;1.60;;;7.60;94.40;;;;;;5025484;28;20329;-75
2022/01/31 07:33:28;;;;;;;11.63;1.83;;;7.60;94.40;;;;;;5008752;28;20101;-75
2022/01/31 07:36:00;;;;;;;18.02;1.85;;;7.60;94.20;;;;;;5009888;28;20048;-75
2022/01/31 07:38:44;;;;;;;13.85;1.90;;;7.60;94.30;;;;;;5009065;28;20025;-74
2022/01/31 07:41:48;;;;;;;13.52;2.80;;;7.60;94.10;;;;;;4989463;28;20030;-79
2022/01/31 07:44:45;;;;;;;14.07;1.55;;;7.70;93.90;;;;;;4980602;28;20317;-75
2022/01/31 07:47:16;;;;;;;11.45;1.77;;;7.70;93.50;;;;;;4998492;28;20076;-75
2022/01/31 07:49:46;;;;;;;21.08;2.92;;;7.80;93.40;;;;;;4992214;28;20026;-75
2022/01/31 07:52:15;;;;;;;11.48;2.13;;;7.70;93.60;;;;;;5007909;28;20042;-74
2022/01/31 07:54:44;;;;;;;15.95;2.00;;;7.70;93.70;;;;;;4987508;28;20030;-75
2022/01/31 07:57:48;;;;;;;;;;;;;;;;;;;;;
2022/01/31 08:00:30;;;;;;;;;;;;;;;;;;;;;
2022/01/31 08:03:05;;;;;;;20.77;2.55;;;7.70;93.60;;;;;;4991475;28;20034;-76
2022/01/31 08:06:00;;;;;;;11.80;1.63;;;7.70;93.40;;;;;;4990800;28;20106;-75
2022/01/31 08:08:30;;;;;;;8.75;1.52;;;7.90;93.30;;;;;;4969382;28;20026;-76
2022/01/31 08:11:36;;;;;;;10.80;1.60;;;7.90;93.50;;;;;;4989192;28;20209;-78
2022/01/31 08:14:17;;;;;;;8.77;1.30;;;7.90;93.80;;;;;;4911123;29;20263;-74
2022/01/31 08:16:49;;;;;;;10.15;1.83;;;8.00;94.10;;;;;;4916614;29;20039;-75
2022/01/31 08:19:33;;;;;;;;;;;;;;;;;;;;;
2022/01/31 08:22:00;;;;;;;6.57;1.45;;;7.70;95.90;;;;;;4944248;29;20047;-76
2022/01/31 08:24:40;;;;;;;11.48;1.77;;;7.50;96.80;;;;;;4938774;29;20027;-81
2022/01/31 08:27:33;;;;;;;13.85;1.95;;;7.40;97.30;;;;;;4916178;29;20392;-82
2022/01/31 08:30:26;;;;;;;11.38;1.70;;;7.20;97.90;;;;;;4922468;29;20036;-77
2022/01/31 08:33:01;;;;;;;15.25;1.85;;;6.90;99.90;;;;;;4911869;29;20086;-78
2022/01/31 08:38:54;;;;;;;16.27;1.95;;;6.60;99.90;;;;;;4932134;29;20040;-79
2022/01/31 08:41:20;;;;;;;9.50;1.80;;;6.70;99.90;;;;;;4851317;29;20079;-78
2022/01/31 08:43:47;;;;;;;16.42;1.90;;;6.70;99.90;;;;;;4851876;29;20056;-74
2022/01/31 08:46:14;;;;;;;17.42;1.70;;;6.80;99.90;;;;;;4851336;29;20095;-78
2022/01/31 08:48:43;;;;;;;15.05;2.03;;;6.90;99.50;;;;;;4851222;29;20029;-77
2022/01/31 08:51:11;;;;;;;10.90;1.55;;;7.10;99.00;;;;;;4845412;29;20030;-72
2022/01/31 08:53:37;;;;;;;12.95;2.33;;;7.10;99.00;;;;;;4833175;29;20053;-75
2022/01/31 08:56:07;;;;;;;11.70;1.77;;;7.20;98.90;;;;;;4851004;29;20086;-75
2022/01/31 08:58:44;;;;;;;14.75;2.58;;;7.30;98.80;;;;;;4867310;29;20454;-76
2022/01/31 09:01:16;;;;;;;7.07;1.25;;;7.40;98.70;;;;;;4868627;29;20041;-76
2022/01/31 09:03:55;;;;;;;16.30;1.45;;;7.50;98.50;;;;;;4852096;29;20113;-78
2022/01/31 09:06:26;;;;;;;11.70;1.70;;;7.50;98.40;;;;;;4858468;29;20091;-74
2022/01/31 09:08:52;;;;;;;11.30;2.15;;;7.60;98.10;;;;;;4862527;29;20394;-73
2022/01/31 09:11:18;;;;;;;14.75;2.20;;;7.60;98.40;;;;;;4966223;28;20122;-71
2022/01/31 09:13:45;;;;;;;14.48;2.35;;;7.60;98.40;;;;;;4983800;28;20034;-75
2022/01/31 09:16:10;;;;;;;12.15;2.03;;;7.70;98.20;;;;;;4993105;28;20022;-72
2022/01/31 09:18:36;;;;;;;11.43;1.85;;;7.70;98.30;;;;;;5000787;28;20260;-74
2022/01/31 09:21:03;;;;;;;12.50;1.80;;;7.70;97.90;;;;;;4987160;28;20018;-75
2022/01/31 09:23:29;;;;;;;14.98;2.08;;;7.70;98.10;;;;;;5004310;28;20014;-74
2022/01/31 09:25:56;;;;;;;13.50;2.05;;;7.70;97.60;;;;;;4987415;28;20022;-76
2022/01/31 09:28:23;;;;;;;11.15;1.80;;;7.80;96.50;;;;;;4971746;28;20022;-77
2022/01/31 09:30:52;;;;;;;19.80;2.88;;;8.00;96.70;;;;;;4971248;28;20297;-76
2022/01/31 09:33:18;;;;;;;17.67;2.80;;;8.00;96.70;;;;;;5013495;28;20053;-77
2022/01/31 09:35:44;;;;;;;13.45;2.00;;;7.90;97.10;;;;;;5006897;28;20374;-73
2022/01/31 09:38:12;;;;;;;13.98;2.38;;;7.80;97.20;;;;;;5021794;28;20021;-77
2022/01/31 09:40:39;;;;;;;10.93;1.65;;;7.90;97.50;;;;;;5006472;28;20017;-78
2022/01/31 09:48:43;;;;;;;11.20;2.38;;;7.80;97.60;;;;;;5022256;28;20040;-80
2022/01/31 09:51:14;;;;;;;14.93;2.25;;;7.70;97.50;;;;;;5005770;28;20030;-77
2022/01/31 09:53:44;;;;;;;10.65;2.17;;;7.80;97.50;;;;;;5006402;28;20038;-81
2022/01/31 09:56:12;;;;;;;17.20;2.15;;;7.90;97.60;;;;;;4973834;28;20079;-79
2022/01/31 09:58:39;;;;;;;19.50;3.08;;;7.90;97.50;;;;;;5024747;28;20057;-79
2022/01/31 10:01:26;;;;;;;10.82;2.13;;;7.90;97.40;;;;;;5008839;28;20029;-79
2022/01/31 10:03:56;;;;;;;11.98;2.10;;;8.00;97.40;;;;;;4973376;28;20031;-78
2022/01/31 10:06:25;;;;;;;8.90;1.88;;;8.10;97.00;;;;;;4985130;28;20019;-77
2022/01/31 10:09:13;;;;;;;13.70;1.80;;;8.00;97.40;;;;;;4970758;28;20024;-74
2022/01/31 10:11:50;;;;;;;15.07;2.40;;;8.00;97.50;;;;;;4989945;28;20247;-78
2022/01/31 10:17:25;;;;;;;13.02;2.40;;;8.00;98.10;;;;;;4976591;28;20057;-80
2022/01/31 10:19:55;;;;;;;10.13;1.98;;;7.80;97.70;;;;;;5016952;28;20025;-80
2022/01/31 10:22:23;;;;;;;11.23;2.10;;;7.80;98.00;;;;;;5025032;28;20023;-80
2022/01/31 10:24:51;;;;;;;13.80;2.78;;;7.80;98.10;;;;;;5025484;28;20076;-77
2022/01/31 10:27:20;;;;;;;8.30;1.67;;;7.90;98.10;;;;;;5009358;28;20092;-78
2022/01/31 10:29:48;;;;;;;13.32;1.60;;;8.00;98.20;;;;;;5009572;28;20055;-83
2022/01/31 10:32:22;;;;;;;14.48;2.50;;;8.10;98.00;;;;;;5008864;28;20308;-81
2022/01/31 10:34:52;;;;;;;11.13;1.85;;;8.20;98.20;;;;;;5006038;28;20030;-84
2022/01/31 10:37:21;;;;;;;13.65;1.80;;;8.30;97.90;;;;;;5004634;28;20025;-79
2022/01/31 10:51:57;;;;;;;8.57;1.83;;;8.50;96.50;;;;;;5008923;28;20033;-77
2022/01/31 10:57:15;;;;;;;11.30;1.55;;;8.80;95.90;;;;;;5009653;28;20065;-80
2022/01/31 10:59:44;;;;;;;14.88;2.13;;;8.90;95.60;;;;;;4992629;28;20026;-80
2022/01/31 11:02:26;;;;;;;14.48;2.15;;;8.80;95.60;;;;;;4998419;28;20363;-79
2022/01/31 11:04:52;;;;;;;24.98;2.10;;;8.60;95.80;;;;;;5029730;28;20064;-81
2022/01/31 11:07:21;;;;;;;18.60;2.30;;;8.60;95.90;;;;;;4995776;28;20036;-77
2022/01/31 11:09:49;;;;;;;17.95;1.73;;;8.60;95.60;;;;;;4995613;28;20059;-76
2022/01/31 11:12:15;;;;;;;15.18;2.35;;;8.60;95.00;;;;;;5029570;28;20032;-79
2022/01/31 11:14:44;;;;;;;10.20;1.38;;;8.50;95.20;;;;;;5011523;28;20048;-78
2022/01/31 11:17:13;;;;;;;11.88;1.75;;;8.50;95.10;;;;;;5011984;28;20064;-77
2022/01/31 11:19:41;;;;;;;17.70;3.55;;;8.60;95.20;;;;;;5011874;28;20028;-77
2022/01/31 11:22:10;;;;;;;22.85;3.28;;;8.60;95.20;;;;;;5011749;28;20029;-81
2022/01/31 11:24:44;;;;;;;9.88;2.80;;;8.60;95.20;;;;;;4995157;28;20037;-80
2022/01/31 11:27:13;;;;;;;13.23;2.22;;;8.70;94.80;;;;;;5029253;28;20056;-80
2022/01/31 11:29:44;;;;;;;11.73;1.60;;;8.70;94.80;;;;;;5011726;28;20049;-78
2022/01/31 11:32:12;;;;;;;13.63;1.63;;;8.70;94.70;;;;;;4995335;28;20037;-75
2022/01/31 11:34:40;;;;;;;24.98;2.13;;;8.70;94.70;;;;;;5008307;28;20077;-79
2022/01/31 11:37:09;;;;;;;14.02;1.98;;;8.80;94.60;;;;;;4975765;28;20030;-81
2022/01/31 11:39:37;;;;;;;16.45;1.80;;;8.80;94.80;;;;;;4986203;28;20022;-78
2022/01/31 11:42:04;;;;;;;14.10;1.98;;;9.00;95.00;;;;;;5009390;28;20090;-76
2022/01/31 11:44:40;;;;;;;9.23;1.95;;;9.10;94.20;;;;;;5008334;28;20030;-80
2022/01/31 11:47:08;;;;;;;10.02;1.80;;;9.20;93.80;;;;;;5008771;28;20045;-77
2022/01/31 11:49:52;;;;;;;11.38;2.25;;;9.10;93.90;;;;;;5023954;28;20022;-78
2022/01/31 11:52:19;;;;;;;11.40;2.10;;;9.20;94.10;;;;;;5028397;28;20061;-79
2022/01/31 11:54:50;;;;;;;18.38;2.15;;;9.00;94.30;;;;;;5020118;28;20038;-80
2022/01/31 11:57:19;;;;;;;7.75;1.35;;;8.90;94.70;;;;;;5025866;28;20041;-76
2022/01/31 11:59:50;;;;;;;7.53;1.30;;;8.90;94.90;;;;;;5037212;28;20074;-80
2022/01/31 12:02:22;;;;;;;8.67;1.10;;;8.80;95.00;;;;;;5018659;28;20037;-79
2022/01/31 12:04:50;;;;;;;6.55;0.90;;;8.90;95.00;;;;;;5033861;28;20247;-77
2022/01/31 12:07:43;;;;;;;13.95;2.40;;;8.90;94.90;;;;;;5026777;28;20021;-74
2022/01/31 12:10:33;;;;;;;6.72;1.25;;;9.00;94.40;;;;;;5011657;28;20289;-75
2022/01/31 12:13:17;;;;;;;8.75;1.33;;;9.00;94.30;;;;;;5002838;28;20092;-81
2022/01/31 12:15:58;;;;;;;8.73;1.58;;;8.90;94.20;;;;;;5004964;28;20030;-82
2022/01/31 12:24:27;;;;;;;11.95;1.63;;;9.10;94.20;;;;;;4992573;28;20363;-82
2022/01/31 12:26:59;;;;;;;7.68;2.10;;;9.30;93.70;;;;;;5008579;28;20026;-80
2022/01/31 12:29:30;;;;;;;10.48;2.38;;;9.50;93.50;;;;;;5007316;28;20026;-80
2022/01/31 12:31:59;;;;;;;9.40;1.60;;;9.60;93.20;;;;;;5007438;28;20029;-79
2022/01/31 12:34:35;;;;;;;9.75;1.60;;;9.70;93.10;;;;;;5024451;28;20029;-78
2022/01/31 12:37:04;;;;;;;13.60;1.60;;;9.70;92.60;;;;;;5023384;28;20352;-78
2022/01/31 12:39:56;;;;;;;11.02;1.33;;;9.60;92.50;;;;;;5006821;28;20030;-78
2022/01/31 12:45:24;;;;;;;8.65;1.27;;;9.60;92.50;;;;;;5016660;28;20026;-81
2022/01/31 12:48:15;;;;;;;7.43;1.50;;;9.60;92.60;;;;;;5027079;28;20124;-82
2022/01/31 12:50:59;;;;;;;11.88;1.92;;;9.80;92.00;;;;;;5030283;28;20014;-79
2022/01/31 12:53:43;;;;;;;21.05;1.77;;;9.80;92.00;;;;;;5028817;28;20304;-81
2022/01/31 12:56:21;;;;;;;9.18;1.67;;;9.80;92.20;;;;;;5010399;28;20101;-79
2022/01/31 12:58:54;;;;;;;12.90;2.08;;;9.90;92.10;;;;;;5027386;28;20053;-81
2022/01/31 13:01:34;;;;;;;11.57;1.33;;;10.00;91.90;;;;;;5010002;28;20052;-78
2022/01/31 13:04:05;;;;;;;11.75;1.63;;;10.00;91.40;;;;;;5004535;28;20027;-79
2022/01/31 13:06:44;;;;;;;11.98;1.50;;;9.90;91.50;;;;;;4987309;28;20297;-79
2022/01/31 13:09:13;;;;;;;7.50;1.55;;;9.90;91.40;;;;;;4987060;28;20081;-82
2022/01/31 13:11:42;;;;;;;9.30;1.33;;;9.80;91.60;;;;;;4987127;28;20234;-81
2022/01/31 13:14:19;;;;;;;9.70;1.52;;;9.80;91.60;;;;;;5004801;28;20386;-80
2022/01/31 13:19:38;;;;;;;9.93;1.75;;;9.80;91.30;;;;;;4989410;28;20061;-79
2022/01/31 13:22:11;;;;;;;11.90;1.52;;;9.80;91.70;;;;;;4994723;28;20052;-82
2022/01/31 13:24:41;;;;;;;10.13;1.35;;;9.70;91.50;;;;;;5006097;28;20026;-79
2022/01/31 13:27:09;;;;;;;15.85;1.63;;;9.70;91.40;;;;;;5023228;28;20284;-78
2022/01/31 13:29:40;;;;;;;11.77;1.73;;;9.70;91.60;;;;;;5006378;28;20076;-79
2022/01/31 13:32:17;;;;;;;9.13;1.50;;;9.70;91.60;;;;;;5023671;28;20014;-80
2022/01/31 13:34:44;;;;;;;6.57;1.25;;;9.70;91.10;;;;;;4987589;28;20034;-79
2022/01/31 13:37:43;;;;;;;10.15;1.75;;;9.70;91.30;;;;;;4986988;28;20028;-81
2022/01/31 13:40:12;;;;;;;12.80;2.17;;;9.70;91.20;;;;;;4997697;28;20321;-82
2022/01/31 13:42:41;;;;;;;15.77;2.13;;;9.70;91.70;;;;;;4984274;28;20241;-77
2022/01/31 13:45:25;;;;;;;10.35;1.50;;;9.70;91.60;;;;;;5002428;28;20018;-76
2022/01/31 13:47:56;;;;;;;13.00;1.83;;;9.90;91.50;;;;;;5003205;28;20191;-79
2022/01/31 13:50:28;;;;;;;10.55;1.73;;;9.90;91.80;;;;;;5003848;28;20022;-80
2022/01/31 13:53:04;;;;;;;11.00;1.70;;;9.90;91.90;;;;;;5003662;28;20094;-81
2022/01/31 13:55:31;;;;;;;7.18;1.20;;;9.90;91.80;;;;;;5003220;28;20049;-77
2022/01/31 13:57:57;;;;;;;17.65;1.77;;;9.80;92.00;;;;;;5001287;28;20062;-79
2022/01/31 14:00:24;;;;;;;14.65;1.73;;;9.60;92.50;;;;;;5003953;28;20020;-80
2022/01/31 14:03:17;;;;;;;11.48;1.80;;;9.50;92.60;;;;;;5013957;28;20025;-82
2022/01/31 14:06:02;;;;;;;11.55;1.98;;;9.40;93.10;;;;;;4985427;28;20036;-81
2022/01/31 14:08:36;;;;;;;20.10;2.72;;;9.30;94.40;;;;;;5012393;28;20018;-77
2022/01/31 14:11:24;;;;;;;9.77;2.42;;;9.00;96.00;;;;;;5022076;28;20030;-79
2022/01/31 14:13:56;;;;;;;17.23;2.72;;;8.90;97.10;;;;;;5005388;28;20029;-78
2022/01/31 14:16:40;;;;;;;11.85;2.05;;;8.90;97.70;;;;;;5005124;28;20305;-76